Flight Track Log - Related Links

Times and Time Zones

All times are in EDT time to prevent confusion due to time zone crossing. See the UAL33 flight status page for this flight to view local times or setup timezone preferences in your user account.

Time Position Orientation Groundspeed Altitude Reporting Facility
EDT Latitude Longitude Course Direction KTS MPH feet Rate Location/Type
Thu 04:35:39 AM 35.7440 140.3910 147° Southeast 172 198 1,200  Level FlightAware ADS-B
Thu 04:35:59 AM 35.7300 140.4010 150° Southeast 171 197 2,100 2,270 Climbing FlightAware ADS-B
Thu 04:36:16 AM 35.7180 140.4090 152° Southeast 174 200 2,600 1,946 Climbing FlightAware ADS-B
Thu 04:36:36 AM 35.7040 140.4190 150° Southeast 178 205 3,300 1,846 Climbing FlightAware ADS-B
Thu 04:36:55 AM 35.6900 140.4300 147° Southeast 188 216 3,800 1,200 Climbing FlightAware ADS-B
Thu 04:37:16 AM 35.6730 140.4410 152° Southeast 216 249 4,100 973 Climbing FlightAware ADS-B
Thu 04:37:32 AM 35.6580 140.4520 149° Southeast 240 276 4,400 1,297 Climbing FlightAware ADS-B
Thu 04:37:53 AM 35.6360 140.4680 149° Southeast 264 304 4,900 1,953 Climbing FlightAware ADS-B
Thu 04:38:15 AM 35.6130 140.4850 149° Southeast 274 315 5,800 2,400 Climbing FlightAware ADS-B
Thu 04:38:33 AM 35.5930 140.4990 150° Southeast 279 321 6,500 2,471 Climbing FlightAware ADS-B
Thu 04:38:49 AM 35.5770 140.5160 139° Southeast 288 331 7,200 2,640 Climbing FlightAware ADS-B
Thu 04:38:58 AM 35.5710 140.5280 122° Southeast 291 335 7,600 2,400 Climbing FlightAware ADS-B
Thu 04:39:09 AM 35.5660 140.5470 108° East 295 339 8,000 2,167 Climbing FlightAware ADS-B
Thu 04:39:34 AM 35.5590 140.5870 102° East 304 350 8,900 1,636 Climbing FlightAware ADS-B
Thu 04:39:53 AM 35.5540 140.6220 100° East 309 356 9,200 462 Climbing FlightAware ADS-B
Thu 04:40:13 AM 35.5500 140.6560 98° East 316 364 9,200  Level FlightAware ADS-B
Thu 04:40:34 AM 35.5460 140.6920 98° East 315 362 9,200 818 Level FlightAware ADS-B
Thu 04:40:57 AM 35.5400 140.7330 100° East 314 361 9,800 1,684 Climbing FlightAware ADS-B
Thu 04:41:31 AM 35.5320 140.7940 99° East 331 381 10,800 1,543 Climbing FlightAware ADS-B
Thu 04:42:07 AM 35.5230 140.8650 99° East 365 420 11,600 1,313 Climbing FlightAware ADS-B
Thu 04:42:35 AM 35.5150 140.9250 99° East 384 442 12,200 1,714 Climbing FlightAware ADS-B
Thu 04:43:17 AM 35.5030 141.0130 99° East 396 456 13,600 2,026 Climbing FlightAware ADS-B
Thu 04:43:52 AM 35.4920 141.0890 100° East 403 464 14,800 2,132 Climbing FlightAware ADS-B
Thu 04:44:33 AM 35.4680 141.1790 108° East 411 473 16,300 2,063 Climbing FlightAware ADS-B
Thu 04:44:56 AM 35.4600 141.2280 101° East 414 476 17,000 1,778 Climbing FlightAware ADS-B
Thu 04:45:27 AM 35.4700 141.3050 81° East 418 481 17,900 1,662 Climbing FlightAware ADS-B
Thu 04:46:01 AM 35.4840 141.3820 77° East 427 491 18,800 1,629 Climbing FlightAware ADS-B
Thu 04:46:37 AM 35.5000 141.4730 78° East 435 501 19,800 1,629 Climbing FlightAware ADS-B
Thu 04:47:11 AM 35.5150 141.5560 77° East 445 512 20,700 1,437 Climbing FlightAware ADS-B
Thu 04:47:48 AM 35.5300 141.6420 78° East 452 520 21,500 1,325 Climbing FlightAware ADS-B
Thu 04:48:28 AM 35.5490 141.7500 78° East 464 534 22,400 1,403 Climbing FlightAware ADS-B
Thu 04:49:05 AM 35.5650 141.8420 78° East 468 539 23,300 1,352 Climbing FlightAware ADS-B
Thu 04:49:39 AM 35.5800 141.9260 78° East 475 547 24,000 1,324 Climbing FlightAware ADS-B
Thu 04:50:13 AM 35.5980 142.0270 78° East 481 554 24,800 1,268 Climbing FlightAware ADS-B
Thu 04:50:50 AM 35.6130 142.1160 78° East 484 557 25,500 1,200 Climbing FlightAware ADS-B
Thu 04:51:33 AM 35.6340 142.2390 78° East 490 564 26,400 1,154 Climbing FlightAware ADS-B
Thu 04:52:08 AM 35.6500 142.3320 78° East 497 572 27,000 1,068 Climbing FlightAware ADS-B
Thu 04:52:46 AM 35.6690 142.4400 78° East 502 578 27,700 987 Climbing FlightAware ADS-B
Thu 04:53:27 AM 35.6880 142.5540 78° East 510 587 28,300 944 Climbing FlightAware ADS-B
Thu 04:54:15 AM 35.7110 142.6930 78° East 516 594 29,100 980 Climbing FlightAware ADS-B
Thu 04:55:05 AM 35.7360 142.8410 78° East 522 601 29,900 660 Climbing FlightAware ADS-B
Thu 04:55:55 AM 35.7570 142.9690 79° East 524 603 30,200 207 Climbing FlightAware ADS-B
Thu 04:56:32 AM 35.7710 143.0610 79° East 524 603 30,200 1,068 Level FlightAware ADS-B
Thu 04:57:08 AM 35.7950 143.2010 78° East 539 620 31,500 1,545 Climbing FlightAware ADS-B
Thu 04:57:38 AM 35.8110 143.2970 78° East 539 620 31,900 538 Climbing FlightAware ADS-B
Thu 04:58:26 AM 35.8310 143.4220 79° East 542 624 32,200 900 Climbing FlightAware ADS-B
Thu 04:58:58 AM 35.8500 143.5370 78° East 544 626 33,100 1,791 Climbing FlightAware ADS-B
Thu 04:59:33 AM 35.8670 143.6430 79° East 539 620 34,200 1,629 Climbing FlightAware ADS-B
Thu 05:00:08 AM 35.8830 143.7480 79° East 527 606 35,000 1,114 Climbing FlightAware ADS-B
Thu 05:00:43 AM 35.9000 143.8500 78° East 525 604 35,500 538 Climbing FlightAware ADS-B
Thu 05:01:26 AM 35.9170 143.9580 79° East 525 604 35,700 483 Climbing FlightAware ADS-B
Thu 05:02:10 AM 35.9360 144.0850 79° East 525 604 36,200 375 Climbing FlightAware ADS-B
Thu 05:02:46 AM 35.9510 144.1750 78° East 525 604 36,200  Level FlightAware ADS-B
Thu 05:03:22 AM 35.9650 144.2650 79° East 525 604 36,200  Level FlightAware ADS-B
Thu 05:03:58 AM 35.9790 144.3560 79° East 525 604 36,200 727 Level FlightAware ADS-B
Thu 05:04:28 AM 35.9990 144.4910 80° East 513 590 37,000 738 Climbing FlightAware ADS-B
Thu 05:05:03 AM 36.0150 144.6000 80° East 513 590 37,000  Level FlightAware ADS-B
Thu 05:05:50 AM 36.0330 144.7210 80° East 514 592 37,000  Level FlightAware ADS-B
Thu 05:06:28 AM 36.0470 144.8140 79° East 514 592 37,000  Level FlightAware ADS-B
Thu 05:07:04 AM 36.0590 144.9030 81° East 514 592 37,000  Level FlightAware ADS-B
Thu 05:07:41 AM 36.0720 144.9940 80° East 514 592 37,000  Level FlightAware ADS-B
Thu 05:08:17 AM 36.0850 145.0830 80° East 514 592 37,000  Level FlightAware ADS-B
Thu 05:08:54 AM 36.0980 145.1740 80° East 514 592 37,000  Level FlightAware ADS-B
Thu 05:09:30 AM 36.1100 145.2630 80° East 514 592 37,000  Level FlightAware ADS-B
Thu 05:10:06 AM 36.1230 145.3510 80° East 514 592 37,000  Level FlightAware ADS-B
Thu 05:10:42 AM 36.1360 145.4400 80° East 514 592 37,000  Level FlightAware ADS-B
Thu 05:11:19 AM 36.1490 145.5310 80° East 514 592 37,000  Level FlightAware ADS-B
Thu 05:11:55 AM 36.1610 145.6200 80° East 514 592 37,000  Level FlightAware ADS-B
Thu 05:12:31 AM 36.1740 145.7090 80° East 514 592 37,000  Level FlightAware ADS-B
Thu 05:13:07 AM 36.1860 145.7980 80° East 514 592 37,000  Level FlightAware ADS-B
Thu 05:13:44 AM 36.1990 145.8890 80° East 514 592 37,000  Level FlightAware ADS-B
Thu 05:14:20 AM 36.2120 145.9780 80° East 514 592 37,000  Level FlightAware ADS-B
Thu 05:14:56 AM 36.2250 146.0670 80° East 514 592 37,000  Level FlightAware ADS-B
Thu 05:15:33 AM 36.2380 146.1580 80° East 514 592 37,000 Level FlightAware ADS-B
Thu 05:18:00 AM 36.4199 146.5351 59° Northeast  Level Estimated
Thu 05:19:00 AM 36.4939 146.6895 59° Northeast  Level Estimated
Thu 05:20:00 AM 36.5676 146.8442 59° Northeast  Level Estimated
Thu 05:21:00 AM 36.6411 146.9992 59° Northeast  Level Estimated
Thu 05:22:00 AM 36.7144 147.1545 59° Northeast  Level Estimated
Thu 05:23:00 AM 36.7875 147.3101 60° Northeast  Level Estimated
Thu 05:24:00 AM 36.8604 147.4660 60° Northeast  Level Estimated
Thu 05:25:00 AM 36.9331 147.6221 60° Northeast  Level Estimated
Thu 05:26:00 AM 37.0056 147.7786 60° Northeast  Level Estimated
Thu 05:27:00 AM 37.0779 147.9354 60° Northeast  Level Estimated
Thu 05:28:00 AM 37.1500 148.0925 60° Northeast  Level Estimated
Thu 05:29:00 AM 37.2219 148.2499 60° Northeast  Level Estimated
Thu 05:30:00 AM 37.2936 148.4075 60° Northeast  Level Estimated
Thu 05:31:00 AM 37.3650 148.5655 60° Northeast  Level Estimated
Thu 05:32:00 AM 37.4363 148.7238 60° Northeast  Level Estimated
Thu 05:33:00 AM 37.5073 148.8824 61° Northeast  Level Estimated
Thu 05:34:00 AM 37.5781 149.0413 61° Northeast  Level Estimated
Thu 05:35:00 AM 37.6488 149.2005 61° Northeast  Level Estimated
Thu 05:36:00 AM 37.7192 149.3600 61° Northeast  Level Estimated
Thu 05:37:00 AM 37.7893 149.5197 61° Northeast  Level Estimated
Thu 05:38:00 AM 37.8593 149.6798 61° Northeast  Level Estimated
Thu 05:39:00 AM 37.9291 149.8402 61° Northeast  Level Estimated
Thu 05:40:00 AM 37.9986 150.0009 61° Northeast  Level Estimated
Thu 05:41:00 AM 38.0679 150.1620 61° Northeast  Level Estimated
Thu 05:42:00 AM 38.1370 150.3233 61° Northeast  Level Estimated
Thu 05:43:00 AM 38.2058 150.4849 61° Northeast  Level Estimated
Thu 05:44:00 AM 38.2745 150.6468 62° Northeast  Level Estimated
Thu 05:45:00 AM 38.3429 150.8090 62° Northeast  Level Estimated
Thu 05:46:00 AM 38.4111 150.9716 62° Northeast  Level Estimated
Thu 05:47:00 AM 38.4791 151.1344 62° Northeast  Level Estimated
Thu 05:48:00 AM 38.5469 151.2976 62° Northeast  Level Estimated
Thu 05:49:00 AM 38.6144 151.4610 62° Northeast  Level Estimated
Thu 05:50:00 AM 38.6817 151.6248 62° Northeast  Level Estimated
Thu 05:51:00 AM 38.7488 151.7888 62° Northeast  Level Estimated
Thu 05:52:00 AM 38.8156 151.9532 62° Northeast  Level Estimated
Thu 05:53:00 AM 38.8822 152.1179 63° Northeast  Level Estimated
Thu 05:54:00 AM 38.9486 152.2829 63° Northeast  Level Estimated
Thu 05:55:00 AM 39.0147 152.4482 63° Northeast  Level Estimated
Thu 05:56:00 AM 39.0806 152.6138 63° Northeast  Level Estimated
Thu 05:57:00 AM 39.1463 152.7798 63° Northeast  Level Estimated
Thu 05:58:00 AM 39.2118 152.9460 63° Northeast  Level Estimated
Thu 05:59:00 AM 39.2770 153.1125 63° Northeast  Level Estimated
Thu 06:00:00 AM 39.3419 153.2794 63° Northeast  Level Estimated
Thu 06:01:00 AM 39.4067 153.4465 63° Northeast  Level Estimated
Thu 06:02:00 AM 39.4711 153.6140 63° Northeast  Level Estimated
Thu 06:03:00 AM 39.5354 153.7818 64° Northeast  Level Estimated
Thu 06:04:00 AM 39.5994 153.9499 64° Northeast  Level Estimated
Thu 06:05:00 AM 39.6632 154.1183 64° Northeast  Level Estimated
Thu 06:06:00 AM 39.7267 154.2870 64° Northeast  Level Estimated
Thu 06:07:00 AM 39.7900 154.4560 64° Northeast  Level Estimated
Thu 06:08:00 AM 39.8530 154.6253 64° Northeast  Level Estimated
Thu 06:09:00 AM 39.9158 154.7950 64° Northeast  Level Estimated
Thu 06:10:00 AM 39.9783 154.9650 64° Northeast  Level Estimated
Thu 06:11:00 AM 40.0406 155.1352 64° Northeast  Level Estimated
Thu 06:12:00 AM 40.1026 155.3058 65° Northeast  Level Estimated
Thu 06:13:00 AM 40.1644 155.4767 65° Northeast  Level Estimated
Thu 06:14:00 AM 40.2259 155.6479 65° Northeast  Level Estimated
Thu 06:15:00 AM 40.2872 155.8194 65° Northeast  Level Estimated
Thu 06:16:00 AM 40.3483 155.9912 65° Northeast  Level Estimated
Thu 06:17:00 AM 40.4090 156.1633 65° Northeast  Level Estimated
Thu 06:18:00 AM 40.4696 156.3358 65° Northeast  Level Estimated
Thu 06:19:00 AM 40.5298 156.5085 65° Northeast  Level Estimated
Thu 06:20:00 AM 40.5898 156.6816 65° Northeast  Level Estimated
Thu 06:21:00 AM 40.6496 156.8550 66° East  Level Estimated
Thu 06:22:00 AM 40.7090 157.0287 66° East  Level Estimated
Thu 06:23:00 AM 40.7682 157.2026 66° East  Level Estimated
Thu 06:24:00 AM 40.8272 157.3769 66° East  Level Estimated
Thu 06:25:00 AM 40.8859 157.5515 66° East  Level Estimated
Thu 06:26:00 AM 40.9444 157.7265 66° East  Level Estimated
Thu 06:27:00 AM 41.0025 157.9017 66° East  Level Estimated
Thu 06:28:00 AM 41.0604 158.0772 66° East  Level Estimated
Thu 06:29:00 AM 41.1181 158.2531 66° East  Level Estimated
Thu 06:30:00 AM 41.1754 158.4292 67° East  Level Estimated
Thu 06:31:00 AM 41.2325 158.6057 67° East  Level Estimated
Thu 06:32:00 AM 41.2894 158.7825 67° East  Level Estimated
Thu 06:33:00 AM 41.3459 158.9596 67° East  Level Estimated
Thu 06:34:00 AM 41.4022 159.1369 67° East  Level Estimated
Thu 06:35:00 AM 41.4582 159.3146 67° East  Level Estimated
Thu 06:36:00 AM 41.5140 159.4926 67° East  Level Estimated
Thu 06:37:00 AM 41.5692 159.6703 67° East  Level Estimated
Thu 06:38:00 AM 41.6242 159.8483 67° East  Level Estimated
Thu 06:39:00 AM 41.6790 160.0266 68° East  Level Estimated
Thu 06:40:00 AM 41.7334 160.2051 68° East  Level Estimated
Thu 06:41:00 AM 41.7876 160.3840 68° East  Level Estimated
Thu 06:42:00 AM 41.8414 160.5632 68° East  Level Estimated
Thu 06:43:00 AM 41.8951 160.7427 68° East  Level Estimated
Thu 06:44:00 AM 41.9484 160.9224 68° East  Level Estimated
Thu 06:45:00 AM 42.0014 161.1025 68° East  Level Estimated
Thu 06:46:00 AM 42.0542 161.2829 68° East  Level Estimated
Thu 06:47:00 AM 42.1067 161.4636 69° East  Level Estimated
Thu 06:48:00 AM 42.1589 161.6446 69° East  Level Estimated
Thu 06:49:00 AM 42.2108 161.8258 69° East  Level Estimated
Thu 06:50:00 AM 42.2624 162.0074 69° East  Level Estimated
Thu 06:51:00 AM 42.3138 162.1893 69° East  Level Estimated
Thu 06:52:00 AM 42.3648 162.3714 69° East  Level Estimated
Thu 06:53:00 AM 42.4156 162.5539 69° East  Level Estimated
Thu 06:54:00 AM 42.4661 162.7367 69° East  Level Estimated
Thu 06:55:00 AM 42.5163 162.9197 70° East  Level Estimated
Thu 06:56:00 AM 42.5661 163.1031 70° East  Level Estimated
Thu 06:57:00 AM 42.6157 163.2867 70° East  Level Estimated
Thu 06:58:00 AM 42.6651 163.4706 70° East  Level Estimated
Thu 06:59:00 AM 42.7141 163.6548 70° East  Level Estimated
Thu 07:00:00 AM 42.7628 163.8394 70° East  Level Estimated
Thu 07:01:00 AM 42.8112 164.0242 70° East  Level Estimated
Thu 07:02:00 AM 42.8593 164.2092 70° East  Level Estimated
Thu 07:03:00 AM 42.9071 164.3946 71° East  Level Estimated
Thu 07:04:00 AM 42.9547 164.5803 71° East  Level Estimated
Thu 07:05:00 AM 43.0019 164.7662 71° East  Level Estimated
Thu 07:06:00 AM 43.0488 164.9525 71° East  Level Estimated
Thu 07:07:00 AM 43.0954 165.1390 71° East  Level Estimated
Thu 07:08:00 AM 43.1417 165.3258 71° East  Level Estimated
Thu 07:09:00 AM 43.1878 165.5129 71° East  Level Estimated
Thu 07:10:00 AM 43.2335 165.7002 71° East  Level Estimated
Thu 07:11:00 AM 43.2789 165.8879 72° East  Level Estimated
Thu 07:12:00 AM 43.3240 166.0758 72° East  Level Estimated
Thu 07:13:00 AM 43.3687 166.2640 72° East  Level Estimated
Thu 07:14:00 AM 43.4132 166.4525 72° East  Level Estimated
Thu 07:15:00 AM 43.4574 166.6413 72° East  Level Estimated
Thu 07:16:00 AM 43.5012 166.8303 72° East  Level Estimated
Thu 07:17:00 AM 43.5448 167.0196 72° East  Level Estimated
Thu 07:18:00 AM 43.5880 167.2092 72° East  Level Estimated
Thu 07:18:03 AM 45.8667 166.7833 62° Northeast 565 650 38,000  Level Oakland Oceanic (ODAPS)
Thu 07:19:00 AM 43.6309 167.3990 73° East  Level Estimated
Thu 07:20:00 AM 43.6735 167.5892 73° East  Level Estimated
Thu 07:21:00 AM 43.7158 167.7795 73° East  Level Estimated
Thu 07:22:00 AM 43.7578 167.9702 73° East  Level Estimated
Thu 07:23:00 AM 43.7994 168.1611 73° East  Level Estimated
Thu 07:24:00 AM 46.3736 168.1742 63° Northeast 565 650 38,000  Level FlightAware Transoceanic
Thu 07:25:00 AM 46.4446 168.3749 63° Northeast 565 650 38,000  Level FlightAware Transoceanic
Thu 07:26:00 AM 46.5153 168.5762 63° Northeast 565 650 38,000  Level FlightAware Transoceanic
Thu 07:27:00 AM 46.5856 168.7781 63° Northeast 565 650 38,000  Level FlightAware Transoceanic
Thu 07:28:00 AM 46.6556 168.9804 63° Northeast 565 650 38,000  Level FlightAware Transoceanic
Thu 07:29:00 AM 46.7252 169.1833 63° Northeast 565 650 38,000  Level FlightAware Transoceanic
Thu 07:30:00 AM 46.7944 169.3867 64° Northeast 565 650 38,000  Level FlightAware Transoceanic
Thu 07:31:00 AM 46.8633 169.5906 64° Northeast 565 650 38,000  Level FlightAware Transoceanic
Thu 07:32:00 AM 46.9318 169.7950 64° Northeast 565 650 38,000  Level FlightAware Transoceanic
Thu 07:33:00 AM 47.0000 170.0000 70° East 565 650 38,000  Level FlightAware Transoceanic
Thu 07:34:00 AM 47.0514 170.2043 70° East 565 650 38,000  Level FlightAware Transoceanic
Thu 07:34:57 AM 47.0500 170.2167 70° East 539 620 38,000  Level Oakland Oceanic (ODAPS)
Thu 07:35:00 AM 47.1024 170.4091 70° East 565 650 38,000  Level FlightAware Transoceanic
Thu 07:36:00 AM 47.1530 170.6142 70° East 565 650 38,000  Level FlightAware Transoceanic
Thu 07:36:04 AM 47.1167 170.4500 70° East 541 623 38,000  Level Oakland Oceanic (ODAPS)
Thu 07:37:00 AM 47.2033 170.8197 70° East 565 650 38,000  Level FlightAware Transoceanic
Thu 07:38:00 AM 47.2532 171.0256 70° East 565 650 38,000  Level FlightAware Transoceanic
Thu 07:39:00 AM 47.3028 171.2319 71° East 565 650 38,000  Level FlightAware Transoceanic
Thu 07:39:31 AM 47.2833 171.1667 71° East 539 620 38,000  Level Oakland Oceanic (ODAPS)
Thu 07:40:00 AM 47.3519 171.4386 71° East 565 650 38,000  Level FlightAware Transoceanic
Thu 07:41:00 AM 47.3506 171.4493 71° East 539 620 38,000  Level FlightAware Transoceanic
Thu 07:42:00 AM 47.4193 171.7097 71° East 541 623 38,000  Level FlightAware Transoceanic
Thu 07:43:00 AM 47.4684 171.9211 71° East 541 623 38,000  Level FlightAware Transoceanic
Thu 07:44:00 AM 47.5171 172.1328 71° East 541 623 38,000  Level FlightAware Transoceanic
Thu 07:45:00 AM 47.5762 172.4213 71° East 539 620 38,000  Level FlightAware Transoceanic
Thu 07:46:00 AM 47.6237 172.6317 72° East 539 620 38,000  Level FlightAware Transoceanic
Thu 07:47:00 AM 47.6708 172.8426 72° East 539 620 38,000  Level FlightAware Transoceanic
Thu 07:48:00 AM 47.7175 173.0538 72° East 539 620 38,000  Level FlightAware Transoceanic
Thu 07:49:00 AM 47.7638 173.2654 72° East 539 620 38,000  Level FlightAware Transoceanic
Thu 07:49:56 AM 47.7833 173.3500 72° East 536 617 38,000  Level Oakland Oceanic (ODAPS)
Thu 07:50:00 AM 47.8097 173.4773 72° East 539 620 38,000  Level FlightAware Transoceanic
Thu 07:51:00 AM 47.8552 173.6897 72° East 539 620 38,000  Level FlightAware Transoceanic
Thu 07:52:00 AM 47.9004 173.9024 73° East 539 620 38,000  Level FlightAware Transoceanic
Thu 07:53:00 AM 47.9451 174.1154 73° East 539 620 38,000  Level FlightAware Transoceanic
Thu 07:54:00 AM 47.9895 174.3289 73° East 539 620 38,000  Level FlightAware Transoceanic
Thu 07:55:00 AM 48.0335 174.5427 73° East 539 620 38,000  Level FlightAware Transoceanic
Thu 07:56:00 AM 48.0485 174.6117 73° East 536 617 38,000  Level FlightAware Transoceanic
Thu 07:57:00 AM 48.0913 174.8232 73° East 536 617 38,000  Level FlightAware Transoceanic
Thu 07:58:00 AM 48.1337 175.0351 73° East 536 617 38,000  Level FlightAware Transoceanic
Thu 07:59:00 AM 48.1758 175.2473 74° East 536 617 38,000  Level FlightAware Transoceanic
Thu 08:00:00 AM 48.2175 175.4599 74° East 536 617 38,000  Level FlightAware Transoceanic
Thu 08:01:00 AM 48.2587 175.6729 74° East 536 617 38,000  Level FlightAware Transoceanic
Thu 08:02:00 AM 48.2996 175.8861 74° East 536 617 38,000  Level FlightAware Transoceanic
Thu 08:03:00 AM 48.3401 176.0997 74° East 536 617 38,000  Level FlightAware Transoceanic
Thu 08:03:50 AM 48.3833 176.3333 74° East 538 619 38,000  Level Oakland Oceanic (ODAPS)
Thu 08:04:00 AM 48.3802 176.3137 74° East 536 617 38,000  Level FlightAware Transoceanic
Thu 08:05:00 AM 48.4199 176.5279 74° East 536 617 38,000  Level FlightAware Transoceanic
Thu 08:06:00 AM 48.4592 176.7426 75° East 536 617 38,000  Level FlightAware Transoceanic
Thu 08:07:00 AM 48.4981 176.9575 75° East 536 617 38,000  Level FlightAware Transoceanic
Thu 08:08:00 AM 48.5366 177.1728 75° East 536 617 38,000  Level FlightAware Transoceanic
Thu 08:09:00 AM 48.5747 177.3884 75° East 536 617 38,000  Level FlightAware Transoceanic
Thu 08:10:00 AM 48.6282 177.6977 75° East 538 619 38,000  Level FlightAware Transoceanic
Thu 08:11:00 AM 48.6674 177.9264 76° East 538 619 38,000  Level FlightAware Transoceanic
Thu 08:12:00 AM 48.7062 178.1554 76° East 538 619 38,000  Level FlightAware Transoceanic
Thu 08:13:00 AM 48.7445 178.3848 76° East 538 619 38,000  Level FlightAware Transoceanic
Thu 08:14:00 AM 48.7824 178.6145 76° East 538 619 38,000  Level FlightAware Transoceanic
Thu 08:15:00 AM 48.8198 178.8446 76° East 538 619 38,000  Level FlightAware Transoceanic
Thu 08:16:00 AM 48.8568 179.0750 76° East 538 619 38,000  Level FlightAware Transoceanic
Thu 08:17:00 AM 48.8933 179.3058 77° East 538 619 38,000  Level FlightAware Transoceanic
Thu 08:17:40 AM 48.9000 179.3500 77° East 533 613 38,000  Level Oakland Oceanic (ODAPS)
Thu 08:18:00 AM 48.9293 179.5368 77° East 538 619 38,000  Level FlightAware Transoceanic
Thu 08:19:00 AM 48.9649 179.7683 77° East 538 619 38,000  Level FlightAware Transoceanic
Thu 08:20:00 AM 49.0000 -180.0000 77° East 538 619 38,000  Level FlightAware Transoceanic
Thu 08:20:41 AM 49.0000 180.0000 77° East 532 612 38,000  Level Oakland Oceanic (ODAPS)
Thu 08:21:00 AM 49.0315 -179.7828 78° East 538 619 38,000  Level FlightAware Transoceanic
Thu 08:22:00 AM 49.0625 -179.5653 78° East 538 619 38,000  Level FlightAware Transoceanic
Thu 08:23:00 AM 49.0932 -179.3475 78° East 533 613 38,000  Level FlightAware Transoceanic
Thu 08:24:00 AM 49.1234 -179.1294 78° East 533 613 38,000  Level FlightAware Transoceanic
Thu 08:25:00 AM 49.1533 -178.9111 78° East 533 613 38,000  Level FlightAware Transoceanic
Thu 08:26:00 AM 49.1827 -178.6926 78° East 533 613 38,000  Level FlightAware Transoceanic
Thu 08:27:00 AM 49.1867 -178.6627 78° East 532 612 38,000  Level FlightAware Transoceanic
Thu 08:28:00 AM 49.2163 -178.4389 79° East 532 612 38,000  Level FlightAware Transoceanic
Thu 08:29:00 AM 49.2454 -178.2148 79° East 532 612 38,000  Level FlightAware Transoceanic
Thu 08:30:00 AM 49.2742 -177.9904 79° East 532 612 38,000  Level FlightAware Transoceanic
Thu 08:31:00 AM 49.3025 -177.7658 79° East 532 612 38,000 682 Level FlightAware Transoceanic
Thu 08:31:28 AM 49.3167 -177.6000 79° East 530 610 39,000  Climbing Oakland Oceanic (ODAPS)
Thu 08:32:00 AM 49.3303 -177.5409 79° East 532 612 38,000 -652 Descending FlightAware Transoceanic
Thu 08:33:00 AM 49.3578 -177.3157 79° East 532 612 38,000  Level FlightAware Transoceanic
Thu 08:34:00 AM 49.3848 -177.0903 80° East 532 612 38,000  Level FlightAware Transoceanic
Thu 08:35:00 AM 49.4113 -176.8647 80° East 532 612 38,000  Level FlightAware Transoceanic
Thu 08:36:00 AM 49.4374 -176.6388 80° East 532 612 38,000 500 Level FlightAware Transoceanic
Thu 08:37:00 AM 49.4732 -176.2755 80° East 530 610 39,000 500 Climbing FlightAware Transoceanic
Thu 08:38:00 AM 49.4978 -176.0539 80° East 530 610 39,000  Level FlightAware Transoceanic
Thu 08:39:00 AM 49.5220 -175.8321 81° East 530 610 39,000  Level FlightAware Transoceanic
Thu 08:40:00 AM 49.5458 -175.6101 81° East 530 610 39,000  Level FlightAware Transoceanic
Thu 08:41:00 AM 49.5691 -175.3879 81° East 530 610 39,000  Level FlightAware Transoceanic
Thu 08:42:00 AM 49.5920 -175.1655 81° East 530 610 39,000  Level FlightAware Transoceanic
Thu 08:43:00 AM 49.6145 -174.9429 81° East 530 610 39,000  Level FlightAware Transoceanic
Thu 08:44:00 AM 49.6366 -174.7200 81° East 530 610 39,000  Level FlightAware Transoceanic
Thu 08:45:00 AM 49.6582 -174.4970 82° East 530 610 39,000  Level FlightAware Transoceanic
Thu 08:45:20 AM 49.6667 -174.5000 82° East 531 611 39,000  Level Oakland Oceanic (ODAPS)
Thu 08:46:00 AM 49.6794 -174.2738 82° East 530 610 39,000  Level FlightAware Transoceanic
Thu 08:47:00 AM 49.7002 -174.0503 82° East 530 610 39,000  Level FlightAware Transoceanic
Thu 08:48:00 AM 49.7205 -173.8267 82° East 530 610 39,000  Level FlightAware Transoceanic
Thu 08:49:00 AM 49.7405 -173.6029 82° East 530 610 39,000  Level FlightAware Transoceanic
Thu 08:50:00 AM 49.7599 -173.3789 82° East 530 610 39,000  Level FlightAware Transoceanic
Thu 08:51:00 AM 49.7849 -173.1567 83° East 531 611 39,000  Level FlightAware Transoceanic
Thu 08:52:00 AM 49.8031 -172.9322 83° East 531 611 39,000  Level FlightAware Transoceanic
Thu 08:53:00 AM 49.8209 -172.7076 83° East 531 611 39,000  Level FlightAware Transoceanic
Thu 08:54:00 AM 49.8382 -172.4827 83° East 531 611 39,000  Level FlightAware Transoceanic
Thu 08:55:00 AM 49.8551 -172.2578 83° East 531 611 39,000  Level FlightAware Transoceanic
Thu 08:56:00 AM 49.8716 -172.0326 84° East 531 611 39,000  Level FlightAware Transoceanic
Thu 08:57:00 AM 49.8876 -171.8073 84° East 531 611 39,000  Level FlightAware Transoceanic
Thu 08:58:00 AM 49.9032 -171.5819 84° East 531 611 39,000  Level FlightAware Transoceanic
Thu 08:59:00 AM 49.9183 -171.3563 84° East 531 611 39,000  Level FlightAware Transoceanic
Thu 08:59:40 AM 49.9167 -171.3500 84° East 533 613 39,000  Level Oakland Oceanic (ODAPS)
Thu 09:00:00 AM 49.9330 -171.1306 84° East 531 611 39,000  Level FlightAware Transoceanic
Thu 09:01:00 AM 49.9473 -170.9047 84° East 531 611 39,000  Level FlightAware Transoceanic
Thu 09:02:00 AM 49.9611 -170.6787 85° East 531 611 39,000  Level FlightAware Transoceanic
Thu 09:03:00 AM 49.9745 -170.4526 85° East 531 611 39,000  Level FlightAware Transoceanic
Thu 09:04:00 AM 49.9875 -170.2264 85° East 531 611 39,000  Level FlightAware Transoceanic
Thu 09:05:00 AM 50.0000 -170.0000 95° East 531 611 39,000  Level FlightAware Transoceanic
Thu 09:05:10 AM 50.0000 -170.0000 95° East 545 627 39,000  Level Oakland Oceanic (ODAPS)
Thu 09:06:00 AM 49.9870 -169.7688 95° East 533 613 39,000  Level FlightAware Transoceanic
Thu 09:07:00 AM 49.9735 -169.5377 95° East 533 613 39,000  Level FlightAware Transoceanic
Thu 09:08:00 AM 49.9595 -169.3067 95° East 533 613 39,000  Level FlightAware Transoceanic
Thu 09:09:00 AM 49.9451 -169.0759 96° East 533 613 39,000  Level FlightAware Transoceanic
Thu 09:10:00 AM 49.9302 -168.8452 96° East 533 613 39,000  Level FlightAware Transoceanic
Thu 09:11:00 AM 49.9127 -168.5824 96° East 545 627 39,000  Level FlightAware Transoceanic
Thu 09:12:00 AM 49.8965 -168.3467 96° East 545 627 39,000  Level FlightAware Transoceanic
Thu 09:13:00 AM 49.8798 -168.1111 96° East 545 627 39,000  Level FlightAware Transoceanic
Thu 09:13:08 AM 49.8833 -168.1167 96° East 549 632 39,000  Level Oakland Oceanic (ODAPS)
Thu 09:14:00 AM 49.8626 -167.8757 97° East 545 627 39,000  Level FlightAware Transoceanic
Thu 09:15:00 AM 49.8449 -167.6405 97° East 545 627 39,000  Level FlightAware Transoceanic
Thu 09:16:00 AM 49.8268 -167.4054 97° East 545 627 39,000  Level FlightAware Transoceanic
Thu 09:17:00 AM 49.8082 -167.1705 97° East 545 627 39,000  Level FlightAware Transoceanic
Thu 09:18:00 AM 49.7891 -166.9358 97° East 545 627 39,000  Level FlightAware Transoceanic
Thu 09:19:00 AM 49.7725 -166.7058 97° East 549 632 39,000  Level FlightAware Transoceanic
Thu 09:20:00 AM 49.7524 -166.4713 98° East 549 632 39,000  Level FlightAware Transoceanic
Thu 09:21:00 AM 49.7318 -166.2370 98° East 549 632 39,000  Level FlightAware Transoceanic
Thu 09:22:00 AM 49.7108 -166.0029 98° East 549 632 39,000  Level FlightAware Transoceanic
Thu 09:23:00 AM 49.6892 -165.7690 98° East 549 632 39,000  Level FlightAware Transoceanic
Thu 09:24:00 AM 49.6672 -165.5353 98° East 549 632 39,000  Level FlightAware Transoceanic
Thu 09:25:00 AM 49.6447 -165.3018 99° East 549 632 39,000  Level FlightAware Transoceanic
Thu 09:26:00 AM 49.6218 -165.0686 99° East 549 632 39,000  Level FlightAware Transoceanic
Thu 09:27:00 AM 49.5984 -164.8355 99° East 549 632 39,000  Level FlightAware Transoceanic
Thu 09:27:07 AM 49.6000 -164.9167 99° East 549 632 39,000  Level Oakland Oceanic (ODAPS)
Thu 09:28:00 AM 49.5745 -164.6027 99° East 549 632 39,000  Level FlightAware Transoceanic
Thu 09:29:00 AM 49.5501 -164.3701 99° East 549 632 39,000  Level FlightAware Transoceanic
Thu 09:30:00 AM 49.5253 -164.1378 99° East 549 632 39,000  Level FlightAware Transoceanic
Thu 09:31:00 AM 49.5000 -163.9057 100° East 549 632 39,000  Level FlightAware Transoceanic
Thu 09:32:00 AM 49.4743 -163.6738 100° East 549 632 39,000  Level FlightAware Transoceanic
Thu 09:33:00 AM 49.4499 -163.5000 100° East 549 632 39,000  Level FlightAware Transoceanic
Thu 09:34:00 AM 49.4232 -163.2647 100° East 549 632 39,000  Level FlightAware Transoceanic
Thu 09:35:00 AM 49.3961 -163.0297 100° East 549 632 39,000  Level FlightAware Transoceanic
Thu 09:36:00 AM 49.3684 -162.7950 100° East 549 632 39,000  Level FlightAware Transoceanic
Thu 09:37:00 AM 49.3403 -162.5605 101° East 549 632 39,000  Level FlightAware Transoceanic
Thu 09:38:00 AM 49.3117 -162.3263 101° East 549 632 39,000  Level FlightAware Transoceanic
Thu 09:39:00 AM 49.2827 -162.0924 101° East 549 632 39,000  Level FlightAware Transoceanic
Thu 09:40:00 AM 49.2531 -161.8587 101° East 549 632 39,000  Level FlightAware Transoceanic
Thu 09:40:54 AM 49.2333 -161.7333 101° East 541 623 39,000  Level Oakland Oceanic (ODAPS)
Thu 09:41:00 AM 49.2231 -161.6254 101° East 549 632 39,000  Level FlightAware Transoceanic
Thu 09:42:00 AM 49.1926 -161.3923 101° East 549 632 39,000  Level FlightAware Transoceanic
Thu 09:43:00 AM 49.1617 -161.1595 102° East 549 632 39,000  Level FlightAware Transoceanic
Thu 09:44:00 AM 49.1303 -160.9270 102° East 549 632 39,000  Level FlightAware Transoceanic
Thu 09:45:00 AM 49.0984 -160.6948 102° East 549 632 39,000  Level FlightAware Transoceanic
Thu 09:46:00 AM 49.0661 -160.4629 102° East 549 632 39,000  Level FlightAware Transoceanic
Thu 09:47:00 AM 49.0349 -160.2466 102° East 541 623 39,000  Level FlightAware Transoceanic
Thu 09:48:00 AM 49.0000 -160.0000 103° East 541 623 39,000  Level FlightAware Transoceanic
Thu 09:48:33 AM 49.0000 -160.0000 103° East 557 641 39,000  Level Oakland Oceanic (ODAPS)
Thu 09:49:00 AM 48.9660 -159.7748 103° East 541 623 39,000  Level FlightAware Transoceanic
Thu 09:50:00 AM 48.9315 -159.5498 103° East 541 623 39,000  Level FlightAware Transoceanic
Thu 09:51:00 AM 48.8966 -159.3252 103° East 541 623 39,000  Level FlightAware Transoceanic
Thu 09:52:00 AM 48.8613 -159.1009 104° East 541 623 39,000  Level FlightAware Transoceanic
Thu 09:53:00 AM 48.8255 -158.8769 104° East 541 623 39,000  Level FlightAware Transoceanic
Thu 09:54:00 AM 48.7893 -158.6532 104° East 557 641 39,000  Level FlightAware Transoceanic
Thu 09:54:45 AM 48.7833 -158.5667 104° East 567 652 39,000  Level Oakland Oceanic (ODAPS)
Thu 09:55:00 AM 48.7526 -158.4299 104° East 557 641 39,000  Level FlightAware Transoceanic
Thu 09:56:00 AM 48.7155 -158.2069 104° East 557 641 39,000  Level FlightAware Transoceanic
Thu 09:57:00 AM 48.6780 -157.9842 104° East 557 641 39,000  Level FlightAware Transoceanic
Thu 09:58:00 AM 48.6401 -157.7618 105° East 557 641 39,000  Level FlightAware Transoceanic
Thu 09:59:00 AM 48.6017 -157.5398 105° East 557 641 39,000  Level FlightAware Transoceanic
Thu 10:00:00 AM 48.5857 -157.4067 105° East 567 652 39,000  Level FlightAware Transoceanic
Thu 10:01:00 AM 48.5448 -157.1758 105° East 567 652 39,000  Level FlightAware Transoceanic
Thu 10:02:00 AM 48.5034 -156.9453 105° East 567 652 39,000  Level FlightAware Transoceanic
Thu 10:03:00 AM 48.4615 -156.7152 105° East 567 652 39,000  Level FlightAware Transoceanic
Thu 10:04:00 AM 48.4192 -156.4854 106° East 567 652 39,000  Level FlightAware Transoceanic
Thu 10:05:00 AM 48.3765 -156.2560 106° East 567 652 39,000  Level FlightAware Transoceanic
Thu 10:06:00 AM 48.3333 -156.0271 106° East 567 652 39,000  Level FlightAware Transoceanic
Thu 10:07:00 AM 48.2896 -155.7984 106° East 567 652 39,000  Level FlightAware Transoceanic
Thu 10:08:00 AM 48.2455 -155.5703 106° East 567 652 39,000  Level FlightAware Transoceanic
Thu 10:08:35 AM 48.2000 -155.3667 106° East 569 655 39,000  Level Oakland Oceanic (ODAPS)
Thu 10:09:00 AM 48.2009 -155.3425 106° East 567 652 39,000  Level FlightAware Transoceanic
Thu 10:10:00 AM 48.1559 -155.1150 107° East 567 652 39,000  Level FlightAware Transoceanic
Thu 10:11:00 AM 48.1104 -154.8880 107° East 567 652 39,000  Level FlightAware Transoceanic
Thu 10:12:00 AM 48.0645 -154.6614 107° East 567 652 39,000  Level FlightAware Transoceanic
Thu 10:13:00 AM 48.0182 -154.4352 107° East 567 652 39,000  Level FlightAware Transoceanic
Thu 10:14:00 AM 47.9714 -154.2094 107° East 567 652 39,000  Level FlightAware Transoceanic
Thu 10:15:00 AM 47.8894 -153.8394 107° East 569 655 39,000  Level FlightAware Transoceanic
Thu 10:16:00 AM 47.8434 -153.6227 108° East 569 655 39,000  Level FlightAware Transoceanic
Thu 10:17:00 AM 47.7970 -153.4064 108° East 569 655 39,000  Level FlightAware Transoceanic
Thu 10:18:00 AM 47.7501 -153.1906 108° East 569 655 39,000  Level FlightAware Transoceanic
Thu 10:19:00 AM 47.7029 -152.9751 108° East 569 655 39,000  Level FlightAware Transoceanic
Thu 10:20:00 AM 47.6553 -152.7599 108° East 569 655 39,000  Level FlightAware Transoceanic
Thu 10:21:00 AM 47.6072 -152.5452 108° East 569 655 39,000  Level FlightAware Transoceanic
Thu 10:22:00 AM 47.5588 -152.3309 109° East 569 655 39,000  Level FlightAware Transoceanic
Thu 10:22:28 AM 47.5500 -152.3000 109° East 557 641 39,000  Level Oakland Oceanic (ODAPS)
Thu 10:23:00 AM 47.5099 -152.1170 109° East 569 655 39,000  Level FlightAware Transoceanic
Thu 10:24:00 AM 47.4607 -151.9035 109° East 569 655 39,000  Level FlightAware Transoceanic
Thu 10:25:00 AM 47.4111 -151.6903 109° East 569 655 39,000  Level FlightAware Transoceanic
Thu 10:26:00 AM 47.3611 -151.4776 109° East 569 655 39,000  Level FlightAware Transoceanic
Thu 10:27:00 AM 47.3107 -151.2653 109° East 569 655 39,000  Level FlightAware Transoceanic
Thu 10:28:00 AM 47.2557 -151.0395 109° East 557 641 39,000  Level FlightAware Transoceanic
Thu 10:29:00 AM 47.2053 -150.8308 110° East 557 641 39,000  Level FlightAware Transoceanic
Thu 10:30:00 AM 47.1545 -150.6225 110° East 557 641 39,000  Level FlightAware Transoceanic
Thu 10:31:00 AM 47.1034 -150.4146 110° East 557 641 39,000  Level FlightAware Transoceanic
Thu 10:32:00 AM 47.0519 -150.2071 110° East 557 641 39,000  Level FlightAware Transoceanic
Thu 10:33:00 AM 47.0000 -150.0000 110° East 557 641 39,000  Level FlightAware Transoceanic
Thu 10:33:24 AM 47.0000 -150.0000 110° East 550 633 39,000  Level Oakland Oceanic (ODAPS)
Thu 10:34:00 AM 46.9488 -149.7897 110° East 557 641 39,000  Level FlightAware Transoceanic
Thu 10:35:00 AM 46.8973 -149.5798 110° East 557 641 39,000  Level FlightAware Transoceanic
Thu 10:36:00 AM 46.8454 -149.3703 110° East 557 641 39,000  Level FlightAware Transoceanic
Thu 10:36:20 AM 46.8500 -149.3833 110° East 549 632 39,000  Level Oakland Oceanic (ODAPS)
Thu 10:37:00 AM 46.7931 -149.1612 110° East 557 641 39,000  Level FlightAware Transoceanic
Thu 10:38:00 AM 46.7404 -148.9525 110° East 557 641 39,000  Level FlightAware Transoceanic
Thu 10:39:00 AM 46.6873 -148.7443 110° East 550 633 39,000  Level FlightAware Transoceanic
Thu 10:40:00 AM 46.6339 -148.5364 111° Southeast 550 633 39,000  Level FlightAware Transoceanic
Thu 10:41:00 AM 46.5801 -148.3290 111° Southeast 550 633 39,000  Level FlightAware Transoceanic
Thu 10:42:00 AM 46.5300 -148.1331 111° Southeast 549 632 39,000  Level FlightAware Transoceanic
Thu 10:43:00 AM 46.4754 -147.9262 111° Southeast 549 632 39,000  Level FlightAware Transoceanic
Thu 10:44:00 AM 46.4204 -147.7197 111° Southeast 549 632 39,000  Level FlightAware Transoceanic
Thu 10:45:00 AM 46.3650 -147.5136 111° Southeast 549 632 39,000  Level FlightAware Transoceanic
Thu 10:46:00 AM 46.3092 -147.3080 112° Southeast 549 632 39,000  Level FlightAware Transoceanic
Thu 10:47:00 AM 46.2531 -147.1027 112° Southeast 549 632 39,000  Level FlightAware Transoceanic
Thu 10:48:00 AM 46.1966 -146.8979 112° Southeast 549 632 39,000  Level FlightAware Transoceanic
Thu 10:49:00 AM 46.1398 -146.6935 112° Southeast 549 632 39,000  Level FlightAware Transoceanic
Thu 10:50:00 AM 46.0825 -146.4895 112° Southeast 549 632 39,000  Level FlightAware Transoceanic
Thu 10:50:13 AM 46.0833 -146.5167 112° Southeast 553 636 39,000  Level Oakland Oceanic (ODAPS)
Thu 10:51:00 AM 46.0249 -146.2859 112° Southeast 549 632 39,000  Level FlightAware Transoceanic
Thu 10:52:00 AM 45.9670 -146.0828 112° Southeast 549 632 39,000  Level FlightAware Transoceanic
Thu 10:53:00 AM 45.9087 -145.8801 113° Southeast 549 632 39,000  Level FlightAware Transoceanic
Thu 10:54:00 AM 45.8500 -145.6778 113° Southeast 549 632 39,000  Level FlightAware Transoceanic
Thu 10:55:00 AM 45.7910 -145.4760 113° Southeast 549 632 39,000  Level FlightAware Transoceanic
Thu 10:56:00 AM 45.7325 -145.2966 113° Southeast 553 636 39,000  Level FlightAware Transoceanic
Thu 10:57:00 AM 45.6728 -145.0948 113° Southeast 553 636 39,000  Level FlightAware Transoceanic
Thu 10:58:00 AM 45.6128 -144.8934 113° Southeast 553 636 39,000  Level FlightAware Transoceanic
Thu 10:59:00 AM 45.5523 -144.6924 113° Southeast 553 636 39,000  Level FlightAware Transoceanic
Thu 11:00:00 AM 45.4915 -144.4919 113° Southeast 553 636 39,000  Level FlightAware Transoceanic
Thu 11:01:00 AM 45.4304 -144.2917 114° Southeast 553 636 39,000  Level FlightAware Transoceanic
Thu 11:02:00 AM 45.3689 -144.0921 114° Southeast 553 636 39,000  Level FlightAware Transoceanic
Thu 11:03:00 AM 45.3071 -143.8928 114° Southeast 553 636 39,000  Level FlightAware Transoceanic
Thu 11:04:00 AM 45.2449 -143.6940 114° Southeast 553 636 39,000  Level FlightAware Transoceanic
Thu 11:04:04 AM 45.2500 -143.6833 114° Southeast 557 641 39,000  Level Oakland Oceanic (ODAPS)
Thu 11:05:00 AM 45.1824 -143.4957 114° Southeast 553 636 39,000  Level FlightAware Transoceanic
Thu 11:06:00 AM 45.1196 -143.2977 114° Southeast 553 636 39,000  Level FlightAware Transoceanic
Thu 11:07:00 AM 45.0564 -143.1003 114° Southeast 553 636 39,000  Level FlightAware Transoceanic
Thu 11:08:00 AM 44.9928 -142.9032 115° Southeast 553 636 39,000  Level FlightAware Transoceanic
Thu 11:09:00 AM 44.9289 -142.7066 115° Southeast 553 636 39,000  Level FlightAware Transoceanic
Thu 11:10:00 AM 44.8681 -142.5030 115° Southeast 557 641 39,000  Level FlightAware Transoceanic
Thu 11:11:00 AM 44.8033 -142.3079 115° Southeast 557 641 39,000  Level FlightAware Transoceanic
Thu 11:12:00 AM 44.7382 -142.1131 115° Southeast 557 641 39,000  Level FlightAware Transoceanic
Thu 11:13:00 AM 44.6727 -141.9188 115° Southeast 557 641 39,000  Level FlightAware Transoceanic
Thu 11:14:00 AM 44.6068 -141.7249 116° Southeast 557 641 39,000  Level FlightAware Transoceanic
Thu 11:15:00 AM 44.5407 -141.5315 116° Southeast 557 641 39,000  Level FlightAware Transoceanic
Thu 11:16:00 AM 44.4743 -141.3385 116° Southeast 557 641 39,000  Level FlightAware Transoceanic
Thu 11:17:00 AM 44.4075 -141.1460 116° Southeast 557 641 39,000  Level FlightAware Transoceanic
Thu 11:17:56 AM 44.3667 -141.0333 116° Southeast 547 629 39,000  Level Oakland Oceanic (ODAPS)
Thu 11:18:00 AM 44.3404 -140.9539 116° Southeast 557 641 39,000  Level FlightAware Transoceanic
Thu 11:19:00 AM 44.2729 -140.7622 116° Southeast 557 641 39,000  Level FlightAware Transoceanic
Thu 11:20:00 AM 44.2052 -140.5710 116° Southeast 557 641 39,000  Level FlightAware Transoceanic
Thu 11:21:00 AM 44.1371 -140.3802 117° Southeast 557 641 39,000  Level FlightAware Transoceanic
Thu 11:22:00 AM 44.0687 -140.1899 117° Southeast 557 641 39,000  Level FlightAware Transoceanic
Thu 11:23:00 AM 44.0000 -140.0000 115° Southeast 557 641 39,000  Level FlightAware Transoceanic
Thu 11:23:26 AM 44.0000 -140.0000 115° Southeast 545 627 39,000  Level Oakland Oceanic (ODAPS)
Thu 11:24:00 AM 43.9376 -139.8136 115° Southeast 547 629 39,000  Level FlightAware Transoceanic
Thu 11:25:00 AM 43.8750 -139.6277 115° Southeast 547 629 39,000  Level FlightAware Transoceanic
Thu 11:26:00 AM 43.8120 -139.4421 115° Southeast 547 629 39,000  Level FlightAware Transoceanic
Thu 11:27:00 AM 43.7487 -139.2569 115° Southeast 547 629 39,000  Level FlightAware Transoceanic
Thu 11:28:00 AM 43.6852 -139.0721 116° Southeast 547 629 39,000  Level FlightAware Transoceanic
Thu 11:29:00 AM 43.6144 -138.8680 116° Southeast 545 627 39,000  Level FlightAware Transoceanic
Thu 11:30:00 AM 43.5491 -138.6807 116° Southeast 545 627 39,000  Level FlightAware Transoceanic
Thu 11:31:00 AM 43.4834 -138.4939 116° Southeast 545 627 39,000  Level FlightAware Transoceanic
Thu 11:31:49 AM 43.4500 -138.4167 116° Southeast 539 620 39,000  Level Oakland Oceanic (ODAPS)
Thu 11:32:00 AM 43.4175 -138.3075 116° Southeast 545 627 39,000  Level FlightAware Transoceanic
Thu 11:33:00 AM 43.3512 -138.1214 116° Southeast 545 627 39,000  Level FlightAware Transoceanic
Thu 11:34:00 AM 43.2847 -137.9358 116° Southeast 545 627 39,000  Level FlightAware Transoceanic
Thu 11:35:00 AM 43.2178 -137.7506 116° Southeast 545 627 39,000  Level FlightAware Transoceanic
Thu 11:36:00 AM 43.1507 -137.5658 117° Southeast 545 627 39,000  Level FlightAware Transoceanic
Thu 11:37:00 AM 43.0832 -137.3814 117° Southeast 545 627 39,000  Level FlightAware Transoceanic
Thu 11:38:00 AM 43.0533 -137.3148 117° Southeast 539 620 39,000  Level FlightAware Transoceanic
Thu 11:39:00 AM 42.9862 -137.1325 117° Southeast 539 620 39,000  Level FlightAware Transoceanic
Thu 11:40:00 AM 42.9188 -136.9507 117° Southeast 539 620 39,000  Level FlightAware Transoceanic
Thu 11:41:00 AM 42.8511 -136.7692 117° Southeast 539 620 39,000  Level FlightAware Transoceanic
Thu 11:42:00 AM 42.7831 -136.5882 117° Southeast 539 620 39,000  Level FlightAware Transoceanic
Thu 11:43:00 AM 42.7148 -136.4075 117° Southeast 539 620 39,000  Level FlightAware Transoceanic
Thu 11:44:00 AM 42.6462 -136.2273 117° Southeast 539 620 39,000  Level FlightAware Transoceanic
Thu 11:45:00 AM 42.5774 -136.0474 118° Southeast 539 620 39,000  Level FlightAware Transoceanic
Thu 11:45:41 AM 42.5167 -135.8833 118° Southeast 545 627 39,000  Level Oakland Oceanic (ODAPS)
Thu 11:46:00 AM 42.5082 -135.8679 118° Southeast 539 620 39,000  Level FlightAware Transoceanic
Thu 11:47:00 AM 42.4388 -135.6889 118° Southeast 539 620 39,000  Level FlightAware Transoceanic
Thu 11:48:00 AM 42.3691 -135.5102 118° Southeast 539 620 39,000  Level FlightAware Transoceanic
Thu 11:49:00 AM 42.2992 -135.3319 118° Southeast 539 620 39,000  Level FlightAware Transoceanic
Thu 11:50:00 AM 42.2289 -135.1541 118° Southeast 539 620 39,000  Level FlightAware Transoceanic
Thu 11:51:00 AM 42.0947 -134.8120 118° Southeast 545 627 39,000  Level FlightAware Transoceanic
Thu 11:52:00 AM 42.0234 -134.6348 119° Southeast 545 627 39,000  Level FlightAware Transoceanic
Thu 11:53:00 AM 41.9519 -134.4580 119° Southeast 545 627 39,000  Level FlightAware Transoceanic
Thu 11:54:00 AM 41.8800 -134.2817 119° Southeast 545 627 39,000  Level FlightAware Transoceanic
Thu 11:55:00 AM 41.8079 -134.1057 119° Southeast 545 627 39,000  Level FlightAware Transoceanic
Thu 11:56:00 AM 41.7355 -133.9301 119° Southeast 545 627 39,000  Level FlightAware Transoceanic
Thu 11:57:00 AM 41.6629 -133.7549 119° Southeast 545 627 39,000  Level FlightAware Transoceanic
Thu 11:58:00 AM 41.5900 -133.5801 119° Southeast 545 627 39,000  Level FlightAware Transoceanic
Thu 11:59:00 AM 41.5168 -133.4057 119° Southeast 545 627 39,000  Level FlightAware Transoceanic
Thu 11:59:33 AM 41.5167 -133.4000 119° Southeast 541 623 39,000  Level Oakland Oceanic (ODAPS)
Thu 12:00:00 PM 41.4434 -133.2318 119° Southeast 545 627 39,000  Level FlightAware Transoceanic
Thu 12:01:00 PM 41.3697 -133.0581 120° Southeast 545 627 39,000  Level FlightAware Transoceanic
Thu 12:02:00 PM 41.2958 -132.8849 120° Southeast 545 627 39,000  Level FlightAware Transoceanic
Thu 12:03:00 PM 41.2216 -132.7121 120° Southeast 545 627 39,000  Level FlightAware Transoceanic
Thu 12:04:00 PM 41.1471 -132.5397 120° Southeast 545 627 39,000  Level FlightAware Transoceanic
Thu 12:05:00 PM 41.0722 -132.3637 120° Southeast 541 623 39,000  Level FlightAware Transoceanic
Thu 12:06:00 PM 40.9972 -132.1923 120° Southeast 541 623 39,000  Level FlightAware Transoceanic
Thu 12:07:00 PM 40.9220 -132.0214 120° Southeast 541 623 39,000  Level FlightAware Transoceanic
Thu 12:08:00 PM 40.8465 -131.8508 120° Southeast 541 623 39,000  Level FlightAware Transoceanic
Thu 12:09:00 PM 40.7708 -131.6806 121° Southeast 541 623 39,000  Level FlightAware Transoceanic
Thu 12:10:00 PM 40.6948 -131.5108 121° Southeast 541 623 39,000  Level FlightAware Transoceanic
Thu 12:11:00 PM 40.6186 -131.3414 121° Southeast 541 623 39,000  Level FlightAware Transoceanic
Thu 12:12:00 PM 40.5421 -131.1724 121° Southeast 541 623 39,000  Level FlightAware Transoceanic
Thu 12:13:00 PM 40.4654 -131.0037 121° Southeast 541 623 39,000  Level FlightAware Transoceanic
Thu 12:13:25 PM 40.4833 -131.0333 121° Southeast 528 608 39,000  Level Oakland Oceanic (ODAPS)
Thu 12:14:00 PM 40.3884 -130.8355 121° Southeast 541 623 39,000  Level FlightAware Transoceanic
Thu 12:15:00 PM 40.3112 -130.6676 121° Southeast 541 623 39,000  Level FlightAware Transoceanic
Thu 12:16:00 PM 40.2338 -130.5002 121° Southeast 541 623 39,000  Level FlightAware Transoceanic
Thu 12:17:00 PM 40.1561 -130.3331 121° Southeast 541 623 39,000  Level FlightAware Transoceanic
Thu 12:18:00 PM 40.0782 -130.1663 121° Southeast 541 623 39,000  Level FlightAware Transoceanic
Thu 12:19:00 PM 40.0696 -130.1467 122° Southeast 528 608 39,000  Level FlightAware Transoceanic
Thu 12:19:49 PM 40.0000 -130.0000 122° Southeast 516 594 39,000  Level Oakland Oceanic (ODAPS)
Thu 12:20:00 PM 40.0000 -130.0000 122° Southeast 528 608 39,000  Level FlightAware Transoceanic
Thu 12:21:00 PM 39.9212 -129.8388 123° Southeast 528 608 39,000  Level FlightAware Transoceanic
Thu 12:22:00 PM 39.8423 -129.6780 123° Southeast 528 608 39,000  Level FlightAware Transoceanic
Thu 12:23:00 PM 39.7631 -129.5175 123° Southeast 528 608 39,000  Level FlightAware Transoceanic
Thu 12:24:00 PM 39.6837 -129.3575 123° Southeast 528 608 39,000  Level FlightAware Transoceanic
Thu 12:25:00 PM 39.6040 -129.1978 123° Southeast 516 594 39,000  Level FlightAware Transoceanic
Thu 12:26:00 PM 39.5242 -129.0384 123° Southeast 516 594 39,000  Level FlightAware Transoceanic
Thu 12:27:00 PM 39.4441 -128.8795 123° Southeast 516 594 39,000  Level FlightAware Transoceanic
Thu 12:27:11 PM 39.4167 -128.8333 123° Southeast 510 587 39,000  Level Oakland Oceanic (ODAPS)
Thu 12:28:00 PM 39.3638 -128.7208 123° Southeast 516 594 39,000  Level FlightAware Transoceanic
Thu 12:29:00 PM 39.2833 -128.5626 123° Southeast 516 594 39,000  Level FlightAware Transoceanic
Thu 12:30:00 PM 39.2026 -128.4047 123° Southeast 516 594 39,000  Level FlightAware Transoceanic
Thu 12:31:00 PM 39.1216 -128.2472 124° Southeast 516 594 39,000  Level FlightAware Transoceanic
Thu 12:32:00 PM 39.0405 -128.0900 124° Southeast 516 594 39,000  Level FlightAware Transoceanic
Thu 12:33:00 PM 38.9453 -127.9105 124° Southeast 510 587 39,000  Level FlightAware Transoceanic
Thu 12:34:00 PM 38.8660 -127.7579 124° Southeast 510 587 39,000  Level FlightAware Transoceanic
Thu 12:35:00 PM 38.7865 -127.6057 124° Southeast 510 587 39,000  Level FlightAware Transoceanic
Thu 12:36:00 PM 38.7068 -127.4537 124° Southeast 510 587 39,000  Level FlightAware Transoceanic
Thu 12:36:25 PM 38.6708 -127.4567 111° Southeast 515 593 39,000  Level Oakland Center
Thu 12:37:00 PM 38.6270 -127.3022 124° Southeast 510 587 39,000 -97 Level FlightAware Transoceanic
Thu 12:37:27 PM 38.5906 -127.3064 124° Southeast 514 592 38,900  Descending Oakland Center
Thu 12:38:00 PM 38.5469 -127.1509 124° Southeast 510 587 39,000 97 Climbing FlightAware Transoceanic
Thu 12:38:29 PM 38.5106 -127.1578 124° Southeast 511 588 39,000  Level Oakland Center
Thu 12:39:00 PM 38.4667 -127.0000 111° Southeast 510 587 39,000  Level FlightAware Transoceanic
Thu 12:40:00 PM 38.4158 -126.8324 111° Southeast 510 587 39,000  Level FlightAware Transoceanic
Thu 12:41:00 PM 38.3646 -126.6650 111° Southeast 510 587 39,000  Level FlightAware Transoceanic
Thu 12:43:48 PM 38.1950 -126.2660 124° Southeast 508 585 39,000  Level FlightAware ADS-B
Thu 12:44:38 PM 38.1490 -126.1430 115° Southeast 508 585 39,000  Level FlightAware ADS-B
Thu 12:45:12 PM 38.1080 -126.0380 116° Southeast 511 588 39,000  Level FlightAware ADS-B
Thu 12:45:46 PM 38.0720 -125.9440 116° Southeast 512 589 39,000  Level FlightAware ADS-B
Thu 12:46:24 PM 38.0330 -125.8420 116° Southeast 512 589 39,000  Level FlightAware ADS-B
Thu 12:47:02 PM 37.9940 -125.7420 116° Southeast 510 587 39,000  Level FlightAware ADS-B
Thu 12:47:41 PM 37.9530 -125.6370 116° Southeast 512 589 39,000  Level FlightAware ADS-B
Thu 12:48:16 PM 37.9160 -125.5410 116° Southeast 511 588 39,000  Level FlightAware ADS-B
Thu 12:48:49 PM 37.8840 -125.4560 115° Southeast 511 588 39,000  Level FlightAware ADS-B
Thu 12:49:21 PM 37.8510 -125.3690 116° Southeast 513 590 39,000  Level FlightAware ADS-B
Thu 12:49:57 PM 37.8150 -125.2700 115° Southeast 513 590 39,000  Level FlightAware ADS-B
Thu 12:50:35 PM 37.7750 -125.1660 116° Southeast 514 592 39,000  Level FlightAware ADS-B
Thu 12:51:07 PM 37.7440 -125.0830 115° Southeast 513 590 39,000  Level FlightAware ADS-B
Thu 12:51:43 PM 37.7070 -124.9840 115° Southeast 509 586 39,000  Level FlightAware ADS-B
Thu 12:52:21 PM 37.6670 -124.8800 116° Southeast 509 586 39,000  Level FlightAware ADS-B
Thu 12:52:53 PM 37.6350 -124.7970 116° Southeast 509 586 39,000  Level FlightAware ADS-B
Thu 12:53:27 PM 37.6000 -124.7040 115° Southeast 510 587 39,000  Level FlightAware ADS-B
Thu 12:54:05 PM 37.5610 -124.6030 116° Southeast 510 587 39,000  Level FlightAware ADS-B
Thu 12:54:37 PM 37.5280 -124.5170 116° Southeast 509 586 39,000  Level FlightAware ADS-B
Thu 12:55:09 PM 37.4950 -124.4330 116° Southeast 507 583 39,000  Level FlightAware ADS-B
Thu 12:55:49 PM 37.4550 -124.3300 116° Southeast 507 583 39,000  Level FlightAware ADS-B
Thu 12:56:23 PM 37.4190 -124.2360 116° Southeast 511 588 39,000  Level FlightAware ADS-B
Thu 12:56:58 PM 37.3850 -124.1490 116° Southeast 512 589 39,000  Level FlightAware ADS-B
Thu 12:57:33 PM 37.3480 -124.0550 116° Southeast 514 592 39,000  Level FlightAware ADS-B
Thu 12:58:11 PM 37.3060 -123.9480 116° Southeast 516 594 39,000  Level FlightAware ADS-B
Thu 12:58:43 PM 37.2720 -123.8600 116° Southeast 517 595 39,000  Level FlightAware ADS-B
Thu 12:59:20 PM 37.2340 -123.7650 117° Southeast 518 596 39,000  Level FlightAware ADS-B
Thu 12:59:53 PM 37.1980 -123.6730 116° Southeast 517 595 39,000  Level FlightAware ADS-B
Thu 01:00:25 PM 37.1640 -123.5880 117° Southeast 517 595 39,000  Level FlightAware ADS-B
Thu 01:01:06 PM 37.1210 -123.4790 116° Southeast 518 596 39,000  Level FlightAware ADS-B
Thu 01:01:40 PM 37.0850 -123.3880 116° Southeast 518 596 39,000  Level FlightAware ADS-B
Thu 01:02:13 PM 37.0490 -123.2990 117° Southeast 518 596 39,000  Level FlightAware ADS-B
Thu 01:02:47 PM 37.0120 -123.2060 116° Southeast 516 594 39,000  Level FlightAware ADS-B
Thu 01:03:25 PM 36.9720 -123.1080 117° Southeast 514 592 39,000  Level FlightAware ADS-B
Thu 01:03:57 PM 36.9370 -123.0200 116° Southeast 513 590 39,000  Level FlightAware ADS-B
Thu 01:04:25 PM 36.9068 -122.9470 117° Southeast 514 592 39,000  Level FlightAware ADS-B
Thu 01:04:56 PM 36.8731 -122.8640 117° Southeast 514 592 39,000  Level FlightAware ADS-B
Thu 01:05:30 PM 36.8375 -122.7760 117° Southeast 513 590 39,000  Level FlightAware ADS-B
Thu 01:06:05 PM 36.7990 -122.6820 117° Southeast 514 592 39,000  Level FlightAware ADS-B
Thu 01:06:40 PM 36.7622 -122.5920 117° Southeast 513 590 39,000  Level FlightAware ADS-B
Thu 01:07:36 PM 36.7014 -122.4440 117° Southeast 511 588 39,000  Level FlightAware ADS-B
Thu 01:08:07 PM 36.6678 -122.3620 117° Southeast 511 588 39,000  Level FlightAware ADS-B
Thu 01:08:40 PM 36.6340 -122.2810 117° Southeast 510 587 39,000  Level FlightAware ADS-B
Thu 01:08:57 PM 36.6143 -122.2330 117° Southeast 510 587 39,000  Level FlightAware ADS-B
Thu 01:09:29 PM 36.5798 -122.1500 117° Southeast 509 586 39,000  Level FlightAware ADS-B
Thu 01:10:24 PM 36.5210 -122.0090 117° Southeast 505 581 39,000  Level FlightAware ADS-B
Thu 01:11:17 PM 36.4602 -121.8750 119° Southeast 501 577 39,000  Level FlightAware ADS-B
Thu 01:12:04 PM 36.4001 -121.7600 123° Southeast 500 575 39,000  Level FlightAware ADS-B
Thu 01:12:37 PM 36.3594 -121.6820 123° Southeast 503 579 39,000  Level FlightAware ADS-B
Thu 01:13:32 PM 36.2900 -121.5500 123° Southeast 500 575 39,000  Level FlightAware ADS-B
Thu 01:14:06 PM 36.2460 -121.4670 123° Southeast 499 574 39,000  Level FlightAware ADS-B
Thu 01:14:20 PM 36.2282 -121.4330 123° Southeast 503 579 39,000  Level FlightAware ADS-B
Thu 01:14:50 PM 36.1903 -121.3620 123° Southeast 498 573 39,000  Level FlightAware ADS-B
Thu 01:15:24 PM 36.1490 -121.2840 123° Southeast 497 572 39,000  Level FlightAware ADS-B
Thu 01:15:51 PM 36.1135 -121.2170 123° Southeast 496 571 39,000  Level FlightAware ADS-B
Thu 01:16:26 PM 36.0703 -121.1360 123° Southeast 496 571 39,000  Level FlightAware ADS-B
Thu 01:17:07 PM 36.0190 -121.0390 123° Southeast 496 571 39,000  Level FlightAware ADS-B
Thu 01:17:42 PM 35.9740 -120.9570 124° Southeast 498 573 39,000  Level FlightAware ADS-B
Thu 01:18:17 PM 35.9320 -120.8770 123° Southeast 498 573 39,000  Level FlightAware ADS-B
Thu 01:18:50 PM 35.8880 -120.7960 124° Southeast 499 574 39,000  Level FlightAware ADS-B
Thu 01:19:35 PM 35.8320 -120.6920 124° Southeast 496 571 39,000  Level FlightAware ADS-B
Thu 01:20:07 PM 35.7910 -120.6150 123° Southeast 495 570 39,000  Level FlightAware ADS-B
Thu 01:20:45 PM 35.7430 -120.5270 124° Southeast 496 571 39,000  Level FlightAware ADS-B
Thu 01:21:21 PM 35.6960 -120.4400 124° Southeast 496 571 39,000  Level FlightAware ADS-B
Thu 01:21:57 PM 35.6530 -120.3610 124° Southeast 494 568 39,000  Level FlightAware ADS-B
Thu 01:22:30 PM 35.6070 -120.2850 127° Southeast 490 564 39,000  Level FlightAware ADS-B
Thu 01:23:05 PM 35.5510 -120.2140 134° Southeast 481 554 39,000  Level FlightAware ADS-B
Thu 01:23:37 PM 35.4980 -120.1550 138° Southeast 481 554 39,000  Level FlightAware ADS-B
Thu 01:24:14 PM 35.4430 -120.0920 137° Southeast 480 552 39,000  Level FlightAware ADS-B
Thu 01:24:55 PM 35.3870 -120.0280 137° Southeast 480 552 39,000 -1,291 Level FlightAware ADS-B
Thu 01:25:33 PM 35.3080 -119.9390 137° Southeast 482 555 37,300 -2,548 Descending FlightAware ADS-B
Thu 01:26:08 PM 35.2520 -119.8760 137° Southeast 485 558 35,900 -2,535 Descending FlightAware ADS-B
Thu 01:26:44 PM 35.1950 -119.8110 137° Southeast 493 567 34,300 -2,824 Descending FlightAware ADS-B
Thu 01:27:16 PM 35.1390 -119.7490 138° Southeast 502 578 32,700 -2,743 Descending FlightAware ADS-B
Thu 01:27:54 PM 35.0750 -119.6770 137° Southeast 507 583 31,100 -2,417 Descending FlightAware ADS-B
Thu 01:28:28 PM 35.0160 -119.6100 137° Southeast 501 577 29,800 -2,273 Descending FlightAware ADS-B
Thu 01:29:00 PM 34.9600 -119.5480 138° Southeast 491 565 28,600 -1,014 Descending FlightAware ADS-B
Thu 01:29:39 PM 34.9050 -119.4850 137° Southeast 491 565 28,600 -1,432 Level FlightAware ADS-B
Thu 01:30:28 PM 34.8260 -119.3980 138° Southeast 475 547 26,500 -3,073 Descending FlightAware ADS-B
Thu 01:31:01 PM 34.7640 -119.3300 138° Southeast 456 525 24,400 -2,955 Descending FlightAware ADS-B
Thu 01:31:35 PM 34.7140 -119.2740 137° Southeast 448 516 23,200 -2,000 Descending FlightAware ADS-B
Thu 01:32:16 PM 34.6560 -119.2100 138° Southeast 440 506 21,900 -2,127 Descending FlightAware ADS-B
Thu 01:32:54 PM 34.5920 -119.1400 138° Southeast 428 493 20,400 -2,270 Descending FlightAware ADS-B
Thu 01:33:30 PM 34.5400 -119.0830 138° Southeast 420 483 19,100 -2,057 Descending FlightAware ADS-B
Thu 01:34:04 PM 34.4930 -119.0300 137° Southeast 412 474 18,000 -2,000 Descending FlightAware ADS-B
Thu 01:34:36 PM 34.4490 -118.9820 138° Southeast 404 465 16,900 -2,000 Descending FlightAware ADS-B
Thu 01:35:22 PM 34.3840 -118.9110 138° Southeast 392 451 15,400 -2,000 Descending FlightAware ADS-B
Thu 01:35:54 PM 34.3370 -118.8750 148° Southeast 383 441 14,300 -2,000 Descending FlightAware ADS-B
Thu 01:36:34 PM 34.2690 -118.8490 162° South 371 427 13,000 -1,667 Descending FlightAware ADS-B
Thu 01:37:06 PM 34.2200 -118.8310 163° South 358 412 12,300 -938 Descending FlightAware ADS-B
Thu 01:37:38 PM 34.1690 -118.8120 163° South 332 382 12,000 -845 Descending FlightAware ADS-B
Thu 01:38:17 PM 34.1190 -118.7800 152° Southeast 326 375 11,300 -1,371 Descending FlightAware ADS-B
Thu 01:38:48 PM 34.0950 -118.7390 125° Southeast 329 379 10,400 -1,560 Descending FlightAware ADS-B
Thu 01:39:07 PM 34.0780 -118.7040 120° Southeast 323 372 10,000 -522 Descending FlightAware ADS-B
Thu 01:39:34 PM 34.0640 -118.6630 112° Southeast 301 346 10,000 -140 Level FlightAware ADS-B
Thu 01:39:50 PM 34.0560 -118.6340 108° East 283 326 9,900 -1,000 Descending FlightAware ADS-B
Thu 01:40:10 PM 34.0490 -118.6050 106° East 283 326 9,400 -1,579 Descending FlightAware ADS-B
Thu 01:40:28 PM 34.0420 -118.5790 108° East 283 326 8,900 -1,350 Descending FlightAware ADS-B
Thu 01:40:50 PM 34.0330 -118.5450 108° East 280 322 8,500 -938 Descending FlightAware ADS-B
Thu 01:41:00 PM 34.0300 -118.5310 104° East 280 322 8,400 -1,059 Descending FlightAware ADS-B
Thu 01:41:24 PM 34.0190 -118.4930 109° East 278 320 7,900 -1,250 Descending FlightAware ADS-B
Thu 01:41:48 PM 34.0120 -118.4590 104° East 280 322 7,400 -1,286 Descending FlightAware ADS-B
Thu 01:41:52 PM 34.0120 -118.4520 90° East 281 323 7,300 -960 Descending FlightAware ADS-B
Thu 01:42:13 PM 34.0150 -118.4230 83° East 281 323 7,000 -533 Descending FlightAware ADS-B
Thu 01:42:37 PM 34.0200 -118.3820 82° East 277 319 6,900 -818 Descending FlightAware ADS-B
Thu 01:42:57 PM 34.0230 -118.3540 83° East 275 316 6,400 -1,600 Descending FlightAware ADS-B
Thu 01:43:22 PM 34.0270 -118.3140 83° East 263 303 5,700 -1,500 Descending FlightAware ADS-B
Thu 01:43:37 PM 34.0290 -118.2980 81° East 253 291 5,400 -1,080 Descending FlightAware ADS-B
Thu 01:44:12 PM 34.0250 -118.2550 96° East 222 255 4,800 -1,132 Descending FlightAware ADS-B
Thu 01:44:30 PM 34.0060 -118.2430 152° Southeast 204 235 4,400 -1,256 Descending FlightAware ADS-B
Thu 01:44:55 PM 33.9860 -118.2470 189° South 197 227 3,900 -1,455 Descending FlightAware ADS-B
Thu 01:45:03 PM 33.9790 -118.2550 223° Southwest 199 229 3,600 -1,714 Descending FlightAware ADS-B
Thu 01:45:09 PM 33.9760 -118.2610 239° Southwest 201 231 3,500 -1,263 Descending FlightAware ADS-B
Thu 01:45:22 PM 33.9700 -118.2730 239° Southwest 193 222 3,200 -1,455 Descending FlightAware ADS-B
Thu 01:45:42 PM 33.9660 -118.2930 256° West 190 219 2,700 -1,800 Descending FlightAware ADS-B
Thu 01:46:12 PM 33.9600 -118.3250 257° West 192 221 1,700 -1,565 Descending FlightAware ADS-B
Thu 01:46:28 PM 33.9590 -118.3370 264° West 192 221 1,500 -1,263 Descending FlightAware ADS-B
Thu 01:46:50 PM 33.9560 -118.3630 262° West 171 197 900 -1,588 Descending FlightAware ADS-B
Thu 01:47:02 PM 33.9560 -118.3740 270° West 163 188 600 -1,250 Descending FlightAware ADS-B
Thu 01:47:14 PM 33.9540 -118.3840 256° West 154 177 400 -800 Descending FlightAware ADS-B
Thu 01:47:32 PM 33.9520 -118.3990 261° West 147 169 200 -261 Descending FlightAware ADS-B
Thu 01:48:00 PM 33.9500 -118.4190 263° West 147 169 200  Level FlightAware ADS-B

Login

Don't have an account? Register now (free) for customized features, flight alerts, and more!